Grulla, Texas
Current Conditions -  °F | °C
As of 2:53 PM on Saturday 25 Oct 2014 (Local Time) from KMFE Reporting Station
Clear Clear  
Wind Chill: 85°   Ceiling: Unl
Heat Index: 85°   Visibility: 10mi
Dew Point: 61°   Wind: 0mph
Humidity: 44%   Direction: NA
Pressure: 30.09"   Gusts: NA
Location:  26.27°N, 98.65°W
Report Text: KMFE 251953Z AUTO 00000KT 10SM CLR 29/16 A3009 RMK AO2 SLP188 T02940161 TSNO
Loading
Personal Weather Stations






























Interactive Weather Map
Tropical Storm Tracking
New forecast layout! Learn more

10-Day Weather Forecast

Advertisements
Track Severe Weather on mobile